createdAt,value
2023-05-25T00:01:37.516Z,59.30
2023-05-25T00:04:04.571Z,59.21
2023-05-25T00:06:32.550Z,59.19
2023-05-25T00:08:59.120Z,59.54
2023-05-25T00:11:26.801Z,59.28
2023-05-25T00:13:53.686Z,59.55
2023-05-25T00:16:20.596Z,59.80
2023-05-25T00:18:48.724Z,59.45
2023-05-25T00:21:16.180Z,59.81
2023-05-25T00:23:43.149Z,59.96
2023-05-25T00:26:13.524Z,59.64
2023-05-25T00:28:40.020Z,59.86
2023-05-25T00:31:06.607Z,59.60
2023-05-25T00:33:33.164Z,59.79
2023-05-25T00:36:00.289Z,60.25
2023-05-25T00:38:26.768Z,60.25
2023-05-25T00:40:56.511Z,60.06
2023-05-25T00:43:23.359Z,59.83
2023-05-25T00:45:51.717Z,60.30
2023-05-25T00:48:18.931Z,60.41
2023-05-25T00:50:45.978Z,59.98
2023-05-25T00:53:13.718Z,60.33
2023-05-25T00:55:52.067Z,60.47
2023-05-25T00:58:22.060Z,60.72
2023-05-25T01:00:50.745Z,60.17
2023-05-25T01:03:21.821Z,60.65
2023-05-25T01:05:52.048Z,61.00
2023-05-25T01:08:21.245Z,60.97
2023-05-25T01:10:51.353Z,61.04
2023-05-25T01:13:19.985Z,60.85
2023-05-25T01:15:47.958Z,61.33
2023-05-25T01:18:15.875Z,60.85
2023-05-25T01:21:13.296Z,61.14
2023-05-25T01:24:12.075Z,61.41
2023-05-25T01:26:48.840Z,61.52
2023-05-25T01:29:18.709Z,61.39
2023-05-25T01:31:47.249Z,61.32
2023-05-25T01:34:15.162Z,61.61
2023-05-25T01:36:41.699Z,62.05
2023-05-25T01:39:10.983Z,62.00
2023-05-25T01:41:38.343Z,62.13
2023-05-25T01:44:07.537Z,61.83
2023-05-25T01:46:38.596Z,62.37
2023-05-25T01:49:28.393Z,62.66
2023-05-25T01:52:12.829Z,62.87
2023-05-25T01:54:47.077Z,62.90
2023-05-25T01:57:16.925Z,63.08
2023-05-25T01:59:47.147Z,62.92
2023-05-25T02:02:24.034Z,63.24
2023-05-25T02:04:52.956Z,63.07
2023-05-25T02:07:19.458Z,63.47
2023-05-25T02:09:45.936Z,63.54
2023-05-25T02:12:12.481Z,63.99
2023-05-25T02:14:38.965Z,64.03
2023-05-25T02:17:05.586Z,64.18
2023-05-25T02:19:32.091Z,64.46
2023-05-25T02:21:58.709Z,64.52
2023-05-25T02:24:25.591Z,64.36
2023-05-25T02:26:53.040Z,64.64
2023-05-25T02:29:20.528Z,64.98
2023-05-25T02:31:47.357Z,64.91
2023-05-25T02:34:14.061Z,65.22
2023-05-25T02:36:43.343Z,65.43
2023-05-25T02:39:11.026Z,65.64
2023-05-25T02:41:38.774Z,65.85
2023-05-25T02:44:07.173Z,65.93
2023-05-25T02:46:34.191Z,65.94
2023-05-25T02:49:01.196Z,65.92
2023-05-25T02:51:30.203Z,65.90
2023-05-25T02:53:58.754Z,66.29
2023-05-25T02:56:27.531Z,66.16
2023-05-25T02:58:55.292Z,66.33
2023-05-25T03:01:31.824Z,66.57
2023-05-25T03:03:58.585Z,66.70
2023-05-25T03:06:26.565Z,66.62
2023-05-25T03:09:01.280Z,67.00
2023-05-25T03:11:28.470Z,67.17
2023-05-25T03:13:58.423Z,67.26
2023-05-25T03:16:25.991Z,67.55
2023-05-25T03:18:53.761Z,67.89
2023-05-25T03:21:22.342Z,67.78
2023-05-25T03:23:49.452Z,67.75
2023-05-25T03:26:17.555Z,67.83
2023-05-25T03:28:45.877Z,68.03
2023-05-25T03:31:12.669Z,68.34
2023-05-25T03:33:39.420Z,68.41
2023-05-25T03:36:09.478Z,68.62
2023-05-25T03:38:39.098Z,69.11
2023-05-25T03:41:05.855Z,69.20
2023-05-25T03:43:32.403Z,69.73
2023-05-25T03:45:58.976Z,69.91
2023-05-25T03:48:25.579Z,69.93
2023-05-25T03:50:52.273Z,70.29
2023-05-25T03:53:18.799Z,70.45
2023-05-25T03:55:45.510Z,70.44
2023-05-25T03:58:13.111Z,70.63
2023-05-25T04:00:39.560Z,71.29
2023-05-25T04:03:06.971Z,71.50
2023-05-25T04:05:33.669Z,71.40
2023-05-25T04:08:00.292Z,71.61
2023-05-25T04:10:27.064Z,71.60
2023-05-25T04:12:56.616Z,72.01
2023-05-25T04:15:23.417Z,72.02
2023-05-25T04:17:59.644Z,72.42
2023-05-25T04:20:26.373Z,72.47
2023-05-25T04:22:52.985Z,72.43
2023-05-25T04:25:22.109Z,72.58
2023-05-25T04:27:49.054Z,72.60
2023-05-25T04:30:28.195Z,72.62
2023-05-25T04:33:18.510Z,72.82
2023-05-25T04:36:00.672Z,72.85
2023-05-25T04:38:28.086Z,72.95
2023-05-25T04:40:54.574Z,73.04
2023-05-25T04:43:21.271Z,73.41
2023-05-25T04:45:48.075Z,73.60
2023-05-25T04:48:14.912Z,73.45
2023-05-25T04:50:41.839Z,73.42
2023-05-25T04:53:09.113Z,73.50
2023-05-25T04:55:35.840Z,73.96
2023-05-25T04:58:03.306Z,73.98
2023-05-25T05:00:29.876Z,73.88
2023-05-25T05:02:56.712Z,73.69
2023-05-25T05:05:23.409Z,74.26
2023-05-25T05:07:51.751Z,74.67
2023-05-25T05:10:20.584Z,75.11
2023-05-25T05:12:52.825Z,75.11
2023-05-25T05:15:19.278Z,74.89
2023-05-25T05:17:48.229Z,75.46
2023-05-25T05:20:14.990Z,75.34
2023-05-25T05:22:42.166Z,75.67
2023-05-25T05:25:09.151Z,75.65
2023-05-25T05:27:35.967Z,75.86
2023-05-25T05:30:09.104Z,76.21
2023-05-25T05:32:35.619Z,76.24
2023-05-25T05:35:02.373Z,76.38
2023-05-25T05:37:37.610Z,76.67
2023-05-25T05:40:04.676Z,76.56
2023-05-25T05:42:31.744Z,77.11
2023-05-25T05:44:58.546Z,77.31
2023-05-25T05:47:25.050Z,76.76
2023-05-25T05:49:51.608Z,76.92
2023-05-25T05:52:18.157Z,76.81
2023-05-25T05:54:44.706Z,76.77
2023-05-25T05:57:14.244Z,77.28
2023-05-25T05:59:41.058Z,76.88
2023-05-25T06:02:07.766Z,77.60
2023-05-25T06:04:34.316Z,77.31
2023-05-25T06:07:00.988Z,76.81
2023-05-25T06:09:27.787Z,76.65
2023-05-25T06:11:58.246Z,76.92
2023-05-25T06:14:26.769Z,77.00
2023-05-25T06:16:54.830Z,76.66
2023-05-25T06:19:21.415Z,76.14
2023-05-25T06:21:48.074Z,76.14
2023-05-25T06:24:15.247Z,76.01
2023-05-25T06:26:41.912Z,75.59
2023-05-25T06:29:08.452Z,75.21
2023-05-25T06:31:35.010Z,74.93
2023-05-25T06:34:01.965Z,74.85
2023-05-25T06:36:28.480Z,74.70
2023-05-25T06:38:55.246Z,73.82
2023-05-25T06:41:22.266Z,73.80
2023-05-25T06:43:48.906Z,72.57
2023-05-25T06:46:23.920Z,72.46
2023-05-25T06:48:51.339Z,71.99
2023-05-25T06:51:17.856Z,71.65
2023-05-25T06:53:44.560Z,71.36
2023-05-25T06:56:11.153Z,71.17
2023-05-25T06:58:37.692Z,71.00
2023-05-25T07:01:04.297Z,70.68
2023-05-25T07:03:30.970Z,70.18
2023-05-25T07:05:58.353Z,69.96
2023-05-25T07:08:24.825Z,68.74
2023-05-25T07:10:51.371Z,68.94
2023-05-25T07:13:17.887Z,68.63
2023-05-25T07:15:44.910Z,67.84
2023-05-25T07:18:12.623Z,67.39
2023-05-25T07:20:43.855Z,67.16
2023-05-25T07:23:13.957Z,66.68
2023-05-25T07:25:41.420Z,66.06
2023-05-25T07:28:08.673Z,66.16
2023-05-25T07:30:35.630Z,66.12
2023-05-25T07:33:02.142Z,66.06
2023-05-25T07:35:28.722Z,65.66
2023-05-25T07:38:02.564Z,65.77
2023-05-25T07:40:29.060Z,65.61
2023-05-25T07:42:55.553Z,65.49
2023-05-25T07:45:22.527Z,65.05
2023-05-25T07:47:49.272Z,64.80
2023-05-25T07:50:16.042Z,65.03
2023-05-25T07:52:42.702Z,64.58
2023-05-25T07:55:09.970Z,64.07
2023-05-25T07:57:36.645Z,64.01
2023-05-25T08:00:13.269Z,63.98
2023-05-25T08:02:39.912Z,63.65
2023-05-25T08:05:06.890Z,63.58
2023-05-25T08:07:33.741Z,63.68
2023-05-25T08:10:00.781Z,63.19
2023-05-25T08:12:42.950Z,63.15
2023-05-25T08:15:13.985Z,63.08
2023-05-25T08:17:41.688Z,62.55
2023-05-25T08:20:09.057Z,62.37
2023-05-25T08:22:36.088Z,62.20
2023-05-25T08:25:04.728Z,62.53
2023-05-25T08:27:32.918Z,62.44
2023-05-25T08:30:02.017Z,62.36
2023-05-25T08:32:28.534Z,62.66
2023-05-25T08:34:55.062Z,62.51
2023-05-25T08:37:22.621Z,63.16
2023-05-25T08:39:49.099Z,62.51
2023-05-25T08:42:15.681Z,62.65
2023-05-25T08:44:42.383Z,62.87
2023-05-25T08:47:09.214Z,62.87
2023-05-25T08:49:38.692Z,62.75
2023-05-25T08:52:09.418Z,62.82
2023-05-25T08:54:37.625Z,62.21
2023-05-25T08:57:17.174Z,60.93
2023-05-25T09:00:10.501Z,60.74
2023-05-25T09:02:51.419Z,61.51
2023-05-25T09:05:18.931Z,61.72
2023-05-25T09:07:46.643Z,62.13
2023-05-25T09:10:14.373Z,62.03
2023-05-25T09:12:42.378Z,61.59
2023-05-25T09:15:12.384Z,61.33
2023-05-25T09:17:39.997Z,61.18
2023-05-25T09:20:09.259Z,61.03
2023-05-25T09:22:36.109Z,61.47
2023-05-25T09:25:08.707Z,61.03
2023-05-25T09:27:39.647Z,60.91
2023-05-25T09:30:06.931Z,60.70
2023-05-25T09:32:33.702Z,60.67
2023-05-25T09:35:10.961Z,60.30
2023-05-25T09:37:38.520Z,60.00
2023-05-25T09:40:06.258Z,60.23
2023-05-25T09:42:36.935Z,60.13
2023-05-25T09:45:04.969Z,59.92
2023-05-25T09:47:31.573Z,59.92
2023-05-25T09:49:58.576Z,59.82
2023-05-25T09:52:25.931Z,60.33
2023-05-25T09:54:52.730Z,59.83
2023-05-25T09:57:20.504Z,58.87
2023-05-25T09:59:47.746Z,59.00
2023-05-25T10:02:15.345Z,58.28
2023-05-25T10:04:41.887Z,58.45
2023-05-25T10:07:08.660Z,57.51
2023-05-25T10:09:41.586Z,56.38
2023-05-25T10:12:08.837Z,56.49
2023-05-25T10:14:38.138Z,56.64
2023-05-25T10:17:07.026Z,56.29
2023-05-25T10:19:33.430Z,55.76
2023-05-25T10:22:08.840Z,55.50
2023-05-25T10:24:59.475Z,55.00
2023-05-25T10:27:41.151Z,54.11
2023-05-25T10:30:09.705Z,54.37
2023-05-25T10:32:37.546Z,53.85
2023-05-25T10:35:06.188Z,54.31
2023-05-25T10:37:34.027Z,53.95
2023-05-25T10:40:01.478Z,53.51
2023-05-25T10:42:29.529Z,53.97
2023-05-25T10:44:57.701Z,53.61
2023-05-25T10:47:24.559Z,53.54
2023-05-25T10:49:57.643Z,52.78
2023-05-25T10:52:29.601Z,52.86
2023-05-25T10:55:07.278Z,52.26
2023-05-25T10:57:33.887Z,52.42
2023-05-25T11:00:07.132Z,52.44
2023-05-25T11:02:54.995Z,52.16
2023-05-25T11:05:30.449Z,52.22
2023-05-25T11:08:02.062Z,52.05
2023-05-25T11:10:51.129Z,52.64
2023-05-25T11:13:37.025Z,52.76
2023-05-25T11:16:18.210Z,52.28
2023-05-25T11:18:57.919Z,52.37
2023-05-25T11:21:27.533Z,52.23
2023-05-25T11:23:59.403Z,52.09
2023-05-25T11:26:30.799Z,52.28
2023-05-25T11:29:00.844Z,52.60
2023-05-25T11:31:31.954Z,52.04
2023-05-25T11:34:01.279Z,51.37
2023-05-25T11:36:31.543Z,51.48
2023-05-25T11:39:06.639Z,51.92
2023-05-25T11:41:40.232Z,51.71
2023-05-25T11:44:07.829Z,52.03
2023-05-25T11:46:35.144Z,52.03
2023-05-25T11:49:01.754Z,51.72
2023-05-25T11:51:30.204Z,51.83
2023-05-25T11:53:57.147Z,51.65
2023-05-25T11:56:34.173Z,50.66
2023-05-25T11:59:01.895Z,49.95
2023-05-25T12:01:31.807Z,49.85
2023-05-25T12:03:58.649Z,49.40
2023-05-25T12:06:30.258Z,49.62
2023-05-25T12:08:57.731Z,49.94
2023-05-25T12:11:32.215Z,49.79
2023-05-25T12:13:59.983Z,50.03
2023-05-25T12:16:27.173Z,50.06
2023-05-25T12:18:54.840Z,50.34
2023-05-25T12:21:22.502Z,49.89
2023-05-25T12:23:50.288Z,49.56
2023-05-25T12:26:18.998Z,49.39
2023-05-25T12:29:05.956Z,49.63
2023-05-25T12:31:34.310Z,49.61
2023-05-25T12:34:12.158Z,49.40
2023-05-25T12:37:04.933Z,49.75
2023-05-25T12:39:31.365Z,49.64
2023-05-25T12:41:59.630Z,49.57
2023-05-25T12:44:31.241Z,49.66
2023-05-25T12:47:10.803Z,49.76
2023-05-25T12:49:37.700Z,48.84
2023-05-25T12:52:05.021Z,47.54
2023-05-25T12:54:46.181Z,47.20
2023-05-25T12:57:14.598Z,47.50
2023-05-25T12:59:43.359Z,47.97
2023-05-25T13:02:10.775Z,48.07
2023-05-25T13:04:39.065Z,48.26
2023-05-25T13:07:08.413Z,49.12
2023-05-25T13:09:35.222Z,49.35
2023-05-25T13:12:02.742Z,48.08
2023-05-25T13:14:29.983Z,47.42
2023-05-25T13:16:57.594Z,46.20
2023-05-25T13:19:25.883Z,46.10
2023-05-25T13:21:52.971Z,46.59
2023-05-25T13:24:19.725Z,46.63
2023-05-25T13:26:48.411Z,45.63
2023-05-25T13:29:17.333Z,44.80
2023-05-25T13:31:44.185Z,43.75
2023-05-25T13:34:11.097Z,42.53
2023-05-25T13:36:37.634Z,42.58
2023-05-25T13:39:05.349Z,42.39
2023-05-25T13:41:31.909Z,42.69
2023-05-25T13:43:58.401Z,43.12
2023-05-25T13:46:34.046Z,43.02
2023-05-25T13:49:02.002Z,43.86
2023-05-25T13:51:28.484Z,44.58
2023-05-25T13:53:54.973Z,43.97
2023-05-25T13:56:22.330Z,42.62
2023-05-25T13:58:48.918Z,41.93
2023-05-25T14:01:15.649Z,41.80
2023-05-25T14:03:42.386Z,40.83
2023-05-25T14:06:09.441Z,40.34
2023-05-25T14:08:36.035Z,40.33
2023-05-25T14:11:02.989Z,39.63
2023-05-25T14:13:29.668Z,39.57
2023-05-25T14:15:56.272Z,41.02
2023-05-25T14:18:22.944Z,41.29
2023-05-25T14:20:49.582Z,42.11
2023-05-25T14:23:18.498Z,41.36
2023-05-25T14:25:46.942Z,41.99
2023-05-25T14:28:13.688Z,42.52
2023-05-25T14:30:40.162Z,40.51
2023-05-25T14:33:06.756Z,40.14
2023-05-25T14:35:33.256Z,40.76
2023-05-25T14:37:59.889Z,40.98
2023-05-25T14:40:26.488Z,41.68
2023-05-25T14:42:55.364Z,42.57
2023-05-25T14:45:21.973Z,42.92
2023-05-25T14:47:48.597Z,43.35
2023-05-25T14:50:15.674Z,44.33
2023-05-25T14:52:42.713Z,43.89
2023-05-25T14:55:09.618Z,43.81
2023-05-25T14:57:36.766Z,43.58
2023-05-25T15:00:04.113Z,42.84
2023-05-25T15:02:30.778Z,42.33
2023-05-25T15:04:57.447Z,41.77
2023-05-25T15:07:24.084Z,42.03
2023-05-25T15:09:50.671Z,42.38
2023-05-25T15:12:17.166Z,42.28
2023-05-25T15:14:43.642Z,41.20
2023-05-25T15:17:10.121Z,41.14
2023-05-25T15:19:37.282Z,39.91
2023-05-25T15:22:03.968Z,39.32
2023-05-25T15:24:30.464Z,38.83
2023-05-25T15:26:56.916Z,37.91
2023-05-25T15:29:23.572Z,38.90
2023-05-25T15:31:53.581Z,38.90
2023-05-25T15:34:20.582Z,39.64
2023-05-25T15:36:47.098Z,40.29
2023-05-25T15:39:15.322Z,40.45
2023-05-25T15:41:42.101Z,41.05
2023-05-25T15:44:12.352Z,41.28
2023-05-25T15:46:40.168Z,40.89
2023-05-25T15:49:11.135Z,40.78
2023-05-25T15:51:41.914Z,40.19
2023-05-25T15:54:11.178Z,39.69
2023-05-25T15:56:40.113Z,39.04
2023-05-25T15:59:06.705Z,38.95
2023-05-25T16:01:34.435Z,38.80
2023-05-25T16:04:01.324Z,38.43
2023-05-25T16:06:28.068Z,37.39
2023-05-25T16:08:54.700Z,37.34
2023-05-25T16:11:21.756Z,38.10
2023-05-25T16:13:48.183Z,38.35
2023-05-25T16:16:14.866Z,37.81
2023-05-25T16:18:41.601Z,37.77
2023-05-25T16:21:08.103Z,38.14
2023-05-25T16:23:34.557Z,38.87
2023-05-25T16:26:01.030Z,39.19
2023-05-25T16:28:28.687Z,39.57
2023-05-25T16:30:55.225Z,38.72
2023-05-25T16:33:21.652Z,38.71
2023-05-25T16:35:48.390Z,38.71
2023-05-25T16:38:14.888Z,38.66
2023-05-25T16:40:41.376Z,38.35
2023-05-25T16:43:07.836Z,37.98
2023-05-25T16:45:34.371Z,38.17
2023-05-25T16:48:00.866Z,38.76
2023-05-25T16:50:27.426Z,39.42
2023-05-25T16:52:53.956Z,39.18
2023-05-25T16:55:21.292Z,39.83
2023-05-25T16:57:47.893Z,39.48
2023-05-25T17:00:14.943Z,39.70
2023-05-25T17:02:41.540Z,40.08
2023-05-25T17:05:08.564Z,39.48
2023-05-25T17:07:35.870Z,40.08
2023-05-25T17:10:02.420Z,39.84
2023-05-25T17:12:28.937Z,39.50
2023-05-25T17:14:55.383Z,39.90
2023-05-25T17:17:21.886Z,39.48
2023-05-25T17:19:48.464Z,39.48
2023-05-25T17:22:14.932Z,39.46
2023-05-25T17:24:41.443Z,38.91
2023-05-25T17:27:07.946Z,39.15
2023-05-25T17:29:34.432Z,39.85
2023-05-25T17:32:00.909Z,39.79
2023-05-25T17:34:27.477Z,39.48
2023-05-25T17:36:53.965Z,40.12
2023-05-25T17:39:20.529Z,40.55
2023-05-25T17:41:47.625Z,40.53
2023-05-25T17:44:14.108Z,39.20
2023-05-25T17:46:40.624Z,37.38
2023-05-25T17:49:07.147Z,35.79
2023-05-25T17:51:33.652Z,34.21
2023-05-25T17:54:00.143Z,33.28
2023-05-25T17:56:27.122Z,33.15
2023-05-25T17:58:53.684Z,34.20
2023-05-25T18:01:20.338Z,36.41
2023-05-25T18:03:47.022Z,37.62
2023-05-25T18:06:13.526Z,38.76
2023-05-25T18:08:39.996Z,40.33
2023-05-25T18:11:06.513Z,41.18
2023-05-25T18:13:32.955Z,41.66
2023-05-25T18:15:59.701Z,42.28
2023-05-25T18:18:26.215Z,42.97
2023-05-25T18:20:52.722Z,43.50
2023-05-25T18:23:19.196Z,44.09
2023-05-25T18:25:46.137Z,44.62
2023-05-25T18:28:14.983Z,45.30
2023-05-25T18:30:45.356Z,46.00
2023-05-25T18:33:11.937Z,46.37
2023-05-25T18:35:38.578Z,47.02
2023-05-25T18:38:06.564Z,47.54
2023-05-25T18:40:33.040Z,48.45
2023-05-25T18:42:59.536Z,48.65
2023-05-25T18:45:26.106Z,49.08
2023-05-25T18:47:52.763Z,49.53
2023-05-25T18:50:20.030Z,49.86
2023-05-25T18:52:50.642Z,50.25
2023-05-25T18:55:18.367Z,50.86
2023-05-25T18:57:44.856Z,51.08
2023-05-25T19:00:12.016Z,51.36
2023-05-25T19:02:38.815Z,51.81
2023-05-25T19:05:05.831Z,51.94
2023-05-25T19:07:32.582Z,52.46
2023-05-25T19:09:59.051Z,52.90
2023-05-25T19:12:25.672Z,52.99
2023-05-25T19:14:52.094Z,52.87
2023-05-25T19:17:18.551Z,53.13
2023-05-25T19:19:45.006Z,53.40
2023-05-25T19:22:11.519Z,53.63
2023-05-25T19:24:42.367Z,53.89
2023-05-25T19:27:09.324Z,54.21
2023-05-25T19:29:35.758Z,54.76
2023-05-25T19:32:02.287Z,54.99
2023-05-25T19:34:28.936Z,55.06
2023-05-25T19:37:10.253Z,55.58
2023-05-25T19:39:37.269Z,56.00
2023-05-25T19:42:03.917Z,56.31
2023-05-25T19:44:31.063Z,56.68
2023-05-25T19:46:57.890Z,56.53
2023-05-25T19:49:24.504Z,56.83
2023-05-25T19:51:51.439Z,57.03
2023-05-25T19:54:17.931Z,57.18
2023-05-25T19:56:44.435Z,57.42
2023-05-25T19:59:11.314Z,57.70
2023-05-25T20:01:37.844Z,57.99
2023-05-25T20:04:04.473Z,57.90
2023-05-25T20:06:31.466Z,58.31
2023-05-25T20:08:58.116Z,58.38
2023-05-25T20:11:24.602Z,58.37
2023-05-25T20:13:51.128Z,58.67
2023-05-25T20:16:17.638Z,59.07
2023-05-25T20:18:45.557Z,59.19
2023-05-25T20:21:12.027Z,59.26
2023-05-25T20:23:38.525Z,59.28
2023-05-25T20:26:05.046Z,59.42
2023-05-25T20:28:31.546Z,59.43
2023-05-25T20:30:58.004Z,59.29
2023-05-25T20:33:24.548Z,59.65
2023-05-25T20:35:51.229Z,59.78
2023-05-25T20:38:17.756Z,60.21
2023-05-25T20:40:44.282Z,60.29
2023-05-25T20:43:10.747Z,60.39
2023-05-25T20:45:38.565Z,60.39
2023-05-25T20:48:05.155Z,60.80
2023-05-25T20:50:31.781Z,61.05
2023-05-25T20:52:58.392Z,61.17
2023-05-25T20:55:25.801Z,61.11
2023-05-25T20:57:52.501Z,61.33
2023-05-25T21:00:19.231Z,61.25
2023-05-25T21:02:45.990Z,61.57
2023-05-25T21:05:12.576Z,61.68
2023-05-25T21:07:39.116Z,61.80
2023-05-25T21:10:06.141Z,61.87
2023-05-25T21:12:32.742Z,62.00
2023-05-25T21:14:59.243Z,61.92
2023-05-25T21:17:25.991Z,61.95
2023-05-25T21:19:52.593Z,62.04
2023-05-25T21:22:19.397Z,62.05
2023-05-25T21:24:46.021Z,62.37
2023-05-25T21:27:12.485Z,62.38
2023-05-25T21:29:38.978Z,62.49
2023-05-25T21:32:05.752Z,62.48
2023-05-25T21:34:32.235Z,62.76
2023-05-25T21:36:58.716Z,62.69
2023-05-25T21:39:25.319Z,62.57
2023-05-25T21:41:51.796Z,62.95
2023-05-25T21:44:18.432Z,62.98
2023-05-25T21:46:45.032Z,63.14
2023-05-25T21:49:11.635Z,63.06
2023-05-25T21:51:38.130Z,62.98
2023-05-25T21:54:04.693Z,62.92
2023-05-25T21:56:31.267Z,63.18
2023-05-25T21:58:57.841Z,63.10
2023-05-25T22:01:24.418Z,63.16
2023-05-25T22:03:51.174Z,62.94
2023-05-25T22:06:17.739Z,62.81
2023-05-25T22:08:44.299Z,63.13
2023-05-25T22:11:10.937Z,63.10
2023-05-25T22:13:37.494Z,63.22
2023-05-25T22:16:03.991Z,63.30
2023-05-25T22:18:30.611Z,62.93
2023-05-25T22:20:57.235Z,63.00
2023-05-25T22:23:23.756Z,63.10
2023-05-25T22:25:50.374Z,63.43
2023-05-25T22:28:17.001Z,63.53
2023-05-25T22:30:43.546Z,63.37
2023-05-25T22:33:10.217Z,62.92
2023-05-25T22:35:37.322Z,62.89
2023-05-25T22:38:03.826Z,62.74
2023-05-25T22:40:32.637Z,62.86
2023-05-25T22:42:59.080Z,62.94
2023-05-25T22:45:25.669Z,62.62
2023-05-25T22:47:52.199Z,62.42
2023-05-25T22:50:18.735Z,62.25
2023-05-25T22:52:45.433Z,62.69
2023-05-25T22:55:12.014Z,62.93
2023-05-25T22:57:39.251Z,62.25
2023-05-25T23:00:06.577Z,62.32
2023-05-25T23:02:33.209Z,62.64
2023-05-25T23:04:59.781Z,62.37
2023-05-25T23:07:26.257Z,62.59
2023-05-25T23:09:52.687Z,62.39
2023-05-25T23:12:19.188Z,61.89
2023-05-25T23:14:45.623Z,62.18
2023-05-25T23:17:12.090Z,62.27
2023-05-25T23:19:40.178Z,62.27
2023-05-25T23:22:06.648Z,62.31
2023-05-25T23:24:33.093Z,62.16
2023-05-25T23:26:59.598Z,62.55
2023-05-25T23:29:26.281Z,62.37
2023-05-25T23:31:52.940Z,62.24
2023-05-25T23:34:19.585Z,62.56
2023-05-25T23:36:46.074Z,62.34
2023-05-25T23:39:13.034Z,61.99
2023-05-25T23:41:39.591Z,61.89
2023-05-25T23:44:06.463Z,62.10
2023-05-25T23:46:33.002Z,61.80
2023-05-25T23:48:59.564Z,62.14
2023-05-25T23:51:26.105Z,62.00
2023-05-25T23:53:52.573Z,61.90
2023-05-25T23:56:19.116Z,62.27
2023-05-25T23:58:45.653Z,62.14
